Terminal Aerodrome Forecast
Issued by NWS Charleston, WV

Current Version | Previous Version | Text Only | Print | Product List | Glossary Off
Versions: 1 2 3 4 5 6 7 8 9 10 11 12 13 14 15 16 17 18 19 20 21 22 23 24 25 26 27

000
FTUS41 KRLX 042138 AAA
TAFHTS
TAF AMD
KHTS 042138Z 0422/0518 23005KT P6SM SCT040 BKN070
      TEMPO 0422/0423 3SM SHRA BKN040
     FM050600 00000KT 6SM HZ SCT040
     FM050700 00000KT 5SM BR SCT040
     FM051330 00000KT P6SM SCT040=

USA.gov is the U.S. government's official web portal to all federal, state and local government web resources and services.